sensor_id;sensor_type;location;lat;lon;timestamp;P1;durP1;ratioP1;P2;durP2;ratioP2
44165;SDS011;30476;53.468;9.826;2023-05-07T00:00:02;12.30;;;10.57;;
44165;SDS011;30476;53.468;9.826;2023-05-07T00:02:32;12.87;;;11.23;;
44165;SDS011;30476;53.468;9.826;2023-05-07T00:04:57;10.70;;;9.50;;
44165;SDS011;30476;53.468;9.826;2023-05-07T00:07:23;12.10;;;9.27;;
44165;SDS011;30476;53.468;9.826;2023-05-07T00:09:49;10.20;;;9.10;;
44165;SDS011;30476;53.468;9.826;2023-05-07T00:12:15;10.30;;;9.30;;
44165;SDS011;30476;53.468;9.826;2023-05-07T00:14:41;9.50;;;8.10;;
44165;SDS011;30476;53.468;9.826;2023-05-07T00:17:06;10.27;;;9.27;;
44165;SDS011;30476;53.468;9.826;2023-05-07T00:19:32;8.37;;;7.47;;
44165;SDS011;30476;53.468;9.826;2023-05-07T00:21:58;9.00;;;8.10;;
44165;SDS011;30476;53.468;9.826;2023-05-07T00:24:24;10.13;;;7.30;;
44165;SDS011;30476;53.468;9.826;2023-05-07T00:26:50;9.87;;;8.40;;
44165;SDS011;30476;53.468;9.826;2023-05-07T00:29:16;8.77;;;8.00;;
44165;SDS011;30476;53.468;9.826;2023-05-07T00:31:41;8.30;;;7.50;;
44165;SDS011;30476;53.468;9.826;2023-05-07T00:34:07;9.40;;;8.27;;
44165;SDS011;30476;53.468;9.826;2023-05-07T00:36:33;9.30;;;8.40;;
44165;SDS011;30476;53.468;9.826;2023-05-07T00:38:59;8.70;;;7.90;;
44165;SDS011;30476;53.468;9.826;2023-05-07T00:41:27;9.80;;;7.20;;
44165;SDS011;30476;53.468;9.826;2023-05-07T00:43:53;9.00;;;7.80;;
44165;SDS011;30476;53.468;9.826;2023-05-07T00:46:20;7.33;;;6.60;;
44165;SDS011;30476;53.468;9.826;2023-05-07T00:48:46;9.63;;;8.67;;
44165;SDS011;30476;53.468;9.826;2023-05-07T00:51:13;8.00;;;7.30;;
44165;SDS011;30476;53.468;9.826;2023-05-07T00:53:39;7.53;;;6.80;;
44165;SDS011;30476;53.468;9.826;2023-05-07T00:56:05;9.27;;;7.73;;
44165;SDS011;30476;53.468;9.826;2023-05-07T00:58:32;7.77;;;7.07;;
44165;SDS011;30476;53.468;9.826;2023-05-07T01:00:58;10.00;;;8.07;;
44165;SDS011;30476;53.468;9.826;2023-05-07T01:03:24;6.20;;;5.60;;
44165;SDS011;30476;53.468;9.826;2023-05-07T01:05:51;8.40;;;7.50;;
44165;SDS011;30476;53.468;9.826;2023-05-07T01:08:19;8.40;;;7.60;;
44165;SDS011;30476;53.468;9.826;2023-05-07T01:10:45;11.20;;;7.87;;
44165;SDS011;30476;53.468;9.826;2023-05-07T01:13:12;7.13;;;6.43;;
44165;SDS011;30476;53.468;9.826;2023-05-07T01:15:39;7.70;;;6.90;;
44165;SDS011;30476;53.468;9.826;2023-05-07T01:18:06;8.20;;;7.33;;
44165;SDS011;30476;53.468;9.826;2023-05-07T01:20:32;8.30;;;7.30;;
44165;SDS011;30476;53.468;9.826;2023-05-07T01:22:58;7.30;;;6.70;;
44165;SDS011;30476;53.468;9.826;2023-05-07T01:25:25;7.07;;;6.43;;
44165;SDS011;30476;53.468;9.826;2023-05-07T01:27:52;7.57;;;6.70;;
44165;SDS011;30476;53.468;9.826;2023-05-07T01:30:17;8.53;;;7.07;;
44165;SDS011;30476;53.468;9.826;2023-05-07T01:35:36;8.73;;;7.90;;
44165;SDS011;30476;53.468;9.826;2023-05-07T01:38:05;7.07;;;6.47;;
44165;SDS011;30476;53.468;9.826;2023-05-07T01:40:32;7.30;;;6.60;;
44165;SDS011;30476;53.468;9.826;2023-05-07T01:42:59;7.57;;;6.93;;
44165;SDS011;30476;53.468;9.826;2023-05-07T01:45:27;7.63;;;6.63;;
44165;SDS011;30476;53.468;9.826;2023-05-07T01:47:53;7.70;;;7.00;;
44165;SDS011;30476;53.468;9.826;2023-05-07T01:50:20;7.00;;;6.40;;
44165;SDS011;30476;53.468;9.826;2023-05-07T01:52:46;7.43;;;6.73;;
44165;SDS011;30476;53.468;9.826;2023-05-07T01:55:15;7.13;;;6.40;;
44165;SDS011;30476;53.468;9.826;2023-05-07T01:57:41;9.57;;;6.67;;
44165;SDS011;30476;53.468;9.826;2023-05-07T02:00:06;7.67;;;6.90;;
44165;SDS011;30476;53.468;9.826;2023-05-07T02:02:34;6.00;;;5.43;;
44165;SDS011;30476;53.468;9.826;2023-05-07T02:05:00;7.67;;;7.00;;
44165;SDS011;30476;53.468;9.826;2023-05-07T02:07:27;7.53;;;6.93;;
44165;SDS011;30476;53.468;9.826;2023-05-07T02:09:53;7.23;;;6.27;;
44165;SDS011;30476;53.468;9.826;2023-05-07T02:12:20;7.57;;;6.87;;
44165;SDS011;30476;53.468;9.826;2023-05-07T02:14:47;8.00;;;7.20;;
44165;SDS011;30476;53.468;9.826;2023-05-07T02:17:12;7.83;;;7.13;;
44165;SDS011;30476;53.468;9.826;2023-05-07T02:19:38;7.03;;;6.43;;
44165;SDS011;30476;53.468;9.826;2023-05-07T02:22:04;6.57;;;6.03;;
44165;SDS011;30476;53.468;9.826;2023-05-07T02:24:30;7.23;;;6.53;;
44165;SDS011;30476;53.468;9.826;2023-05-07T02:26:56;7.17;;;6.50;;
44165;SDS011;30476;53.468;9.826;2023-05-07T02:29:21;7.77;;;7.07;;
44165;SDS011;30476;53.468;9.826;2023-05-07T02:31:47;7.50;;;6.80;;
44165;SDS011;30476;53.468;9.826;2023-05-07T02:34:18;8.57;;;7.00;;
44165;SDS011;30476;53.468;9.826;2023-05-07T02:36:44;7.30;;;6.70;;
44165;SDS011;30476;53.468;9.826;2023-05-07T02:39:10;8.23;;;7.43;;
44165;SDS011;30476;53.468;9.826;2023-05-07T02:41:37;8.33;;;7.53;;
44165;SDS011;30476;53.468;9.826;2023-05-07T02:44:03;7.77;;;7.10;;
44165;SDS011;30476;53.468;9.826;2023-05-07T02:46:29;7.10;;;6.50;;
44165;SDS011;30476;53.468;9.826;2023-05-07T02:48:54;8.50;;;7.70;;
44165;SDS011;30476;53.468;9.826;2023-05-07T02:51:21;8.10;;;7.30;;
44165;SDS011;30476;53.468;9.826;2023-05-07T02:53:47;10.73;;;8.03;;
44165;SDS011;30476;53.468;9.826;2023-05-07T02:56:13;8.37;;;7.57;;
44165;SDS011;30476;53.468;9.826;2023-05-07T02:58:40;8.27;;;7.40;;
44165;SDS011;30476;53.468;9.826;2023-05-07T03:01:07;8.07;;;7.27;;
44165;SDS011;30476;53.468;9.826;2023-05-07T03:03:34;7.73;;;7.03;;
44165;SDS011;30476;53.468;9.826;2023-05-07T03:06:00;8.30;;;7.60;;
44165;SDS011;30476;53.468;9.826;2023-05-07T03:08:26;8.30;;;7.53;;
44165;SDS011;30476;53.468;9.826;2023-05-07T03:10:52;8.87;;;8.00;;
44165;SDS011;30476;53.468;9.826;2023-05-07T03:13:18;7.20;;;6.50;;
44165;SDS011;30476;53.468;9.826;2023-05-07T03:15:44;7.70;;;6.87;;
44165;SDS011;30476;53.468;9.826;2023-05-07T03:18:10;8.13;;;7.40;;
44165;SDS011;30476;53.468;9.826;2023-05-07T03:20:36;9.60;;;8.67;;
44165;SDS011;30476;53.468;9.826;2023-05-07T03:23:02;9.60;;;8.40;;
44165;SDS011;30476;53.468;9.826;2023-05-07T03:25:28;8.77;;;7.97;;
44165;SDS011;30476;53.468;9.826;2023-05-07T03:27:57;8.33;;;7.57;;
44165;SDS011;30476;53.468;9.826;2023-05-07T03:30:23;7.90;;;7.10;;
44165;SDS011;30476;53.468;9.826;2023-05-07T03:32:49;9.20;;;8.30;;
44165;SDS011;30476;53.468;9.826;2023-05-07T03:35:15;8.93;;;7.93;;
44165;SDS011;30476;53.468;9.826;2023-05-07T03:37:41;9.07;;;8.17;;
44165;SDS011;30476;53.468;9.826;2023-05-07T03:40:07;11.30;;;8.63;;
44165;SDS011;30476;53.468;9.826;2023-05-07T03:42:35;11.03;;;9.07;;
44165;SDS011;30476;53.468;9.826;2023-05-07T03:45:01;9.13;;;8.23;;
44165;SDS011;30476;53.468;9.826;2023-05-07T03:47:27;8.87;;;7.97;;
44165;SDS011;30476;53.468;9.826;2023-05-07T03:49:52;9.47;;;8.43;;
44165;SDS011;30476;53.468;9.826;2023-05-07T03:52:20;8.57;;;7.73;;
44165;SDS011;30476;53.468;9.826;2023-05-07T03:54:49;8.77;;;7.87;;
44165;SDS011;30476;53.468;9.826;2023-05-07T03:57:15;10.60;;;8.20;;
44165;SDS011;30476;53.468;9.826;2023-05-07T03:59:41;10.57;;;9.50;;
44165;SDS011;30476;53.468;9.826;2023-05-07T04:02:07;12.03;;;9.23;;
44165;SDS011;30476;53.468;9.826;2023-05-07T04:04:32;8.67;;;7.77;;
44165;SDS011;30476;53.468;9.826;2023-05-07T04:06:58;8.87;;;7.97;;
44165;SDS011;30476;53.468;9.826;2023-05-07T04:09:27;10.23;;;9.23;;
44165;SDS011;30476;53.468;9.826;2023-05-07T04:11:52;11.37;;;8.57;;
44165;SDS011;30476;53.468;9.826;2023-05-07T04:14:18;10.30;;;8.57;;
44165;SDS011;30476;53.468;9.826;2023-05-07T04:16:44;10.23;;;9.10;;
44165;SDS011;30476;53.468;9.826;2023-05-07T04:19:10;9.07;;;8.17;;
44165;SDS011;30476;53.468;9.826;2023-05-07T04:21:35;11.63;;;9.60;;
44165;SDS011;30476;53.468;9.826;2023-05-07T04:24:02;9.47;;;8.67;;
44165;SDS011;30476;53.468;9.826;2023-05-07T04:26:29;9.30;;;8.40;;
44165;SDS011;30476;53.468;9.826;2023-05-07T04:28:55;10.33;;;9.27;;
44165;SDS011;30476;53.468;9.826;2023-05-07T04:31:21;9.23;;;8.33;;
44165;SDS011;30476;53.468;9.826;2023-05-07T04:33:47;10.97;;;8.70;;
44165;SDS011;30476;53.468;9.826;2023-05-07T04:36:13;10.47;;;8.40;;
44165;SDS011;30476;53.468;9.826;2023-05-07T04:38:39;11.53;;;8.50;;
44165;SDS011;30476;53.468;9.826;2023-05-07T04:41:05;9.93;;;9.00;;
44165;SDS011;30476;53.468;9.826;2023-05-07T04:43:31;9.60;;;8.60;;
44165;SDS011;30476;53.468;9.826;2023-05-07T04:45:57;9.80;;;8.10;;
44165;SDS011;30476;53.468;9.826;2023-05-07T04:48:23;10.80;;;9.70;;
44165;SDS011;30476;53.468;9.826;2023-05-07T04:50:50;9.13;;;8.17;;
44165;SDS011;30476;53.468;9.826;2023-05-07T04:53:16;8.60;;;7.70;;
44165;SDS011;30476;53.468;9.826;2023-05-07T04:55:42;9.43;;;8.40;;
44165;SDS011;30476;53.468;9.826;2023-05-07T04:58:09;9.90;;;9.00;;
44165;SDS011;30476;53.468;9.826;2023-05-07T05:00:35;9.47;;;8.57;;
44165;SDS011;30476;53.468;9.826;2023-05-07T05:03:00;8.77;;;7.97;;
44165;SDS011;30476;53.468;9.826;2023-05-07T05:05:26;10.00;;;9.00;;
44165;SDS011;30476;53.468;9.826;2023-05-07T05:07:52;9.53;;;7.93;;
44165;SDS011;30476;53.468;9.826;2023-05-07T05:10:18;9.80;;;8.53;;
44165;SDS011;30476;53.468;9.826;2023-05-07T05:12:43;9.10;;;8.23;;
44165;SDS011;30476;53.468;9.826;2023-05-07T05:15:10;9.37;;;8.47;;
44165;SDS011;30476;53.468;9.826;2023-05-07T05:17:37;11.03;;;9.87;;
44165;SDS011;30476;53.468;9.826;2023-05-07T05:20:03;9.43;;;8.47;;
44165;SDS011;30476;53.468;9.826;2023-05-07T05:22:31;8.90;;;8.00;;
44165;SDS011;30476;53.468;9.826;2023-05-07T05:24:57;10.23;;;9.20;;
44165;SDS011;30476;53.468;9.826;2023-05-07T05:27:23;9.13;;;8.23;;
44165;SDS011;30476;53.468;9.826;2023-05-07T05:29:48;9.30;;;8.07;;
44165;SDS011;30476;53.468;9.826;2023-05-07T05:32:14;8.87;;;8.03;;
44165;SDS011;30476;53.468;9.826;2023-05-07T05:34:40;9.67;;;8.00;;
44165;SDS011;30476;53.468;9.826;2023-05-07T05:37:06;10.10;;;9.03;;
44165;SDS011;30476;53.468;9.826;2023-05-07T05:39:32;9.90;;;8.33;;
44165;SDS011;30476;53.468;9.826;2023-05-07T05:41:57;8.20;;;7.50;;
44165;SDS011;30476;53.468;9.826;2023-05-07T05:44:23;9.53;;;8.20;;
44165;SDS011;30476;53.468;9.826;2023-05-07T05:46:49;8.87;;;7.77;;
44165;SDS011;30476;53.468;9.826;2023-05-07T05:49:15;9.63;;;8.10;;
44165;SDS011;30476;53.468;9.826;2023-05-07T05:51:40;11.00;;;8.50;;
44165;SDS011;30476;53.468;9.826;2023-05-07T05:54:06;9.73;;;8.73;;
44165;SDS011;30476;53.468;9.826;2023-05-07T05:56:32;9.27;;;8.37;;
44165;SDS011;30476;53.468;9.826;2023-05-07T05:58:58;8.93;;;8.00;;
44165;SDS011;30476;53.468;9.826;2023-05-07T06:01:24;9.60;;;8.63;;
44165;SDS011;30476;53.468;9.826;2023-05-07T06:03:50;9.10;;;8.20;;
44165;SDS011;30476;53.468;9.826;2023-05-07T06:06:16;10.50;;;9.50;;
44165;SDS011;30476;53.468;9.826;2023-05-07T06:08:41;9.53;;;8.53;;
44165;SDS011;30476;53.468;9.826;2023-05-07T06:11:07;9.23;;;8.33;;
44165;SDS011;30476;53.468;9.826;2023-05-07T06:13:33;9.30;;;8.47;;
44165;SDS011;30476;53.468;9.826;2023-05-07T06:15:59;10.30;;;8.80;;
44165;SDS011;30476;53.468;9.826;2023-05-07T06:18:25;10.23;;;9.00;;
44165;SDS011;30476;53.468;9.826;2023-05-07T06:20:51;8.50;;;7.70;;
44165;SDS011;30476;53.468;9.826;2023-05-07T06:23:18;9.40;;;8.30;;
44165;SDS011;30476;53.468;9.826;2023-05-07T06:25:50;7.87;;;7.17;;
44165;SDS011;30476;53.468;9.826;2023-05-07T06:28:16;10.60;;;7.70;;
44165;SDS011;30476;53.468;9.826;2023-05-07T06:30:42;10.30;;;8.13;;
44165;SDS011;30476;53.468;9.826;2023-05-07T06:33:08;9.70;;;7.90;;
44165;SDS011;30476;53.468;9.826;2023-05-07T06:35:34;7.73;;;7.10;;
44165;SDS011;30476;53.468;9.826;2023-05-07T06:38:00;8.50;;;7.70;;
44165;SDS011;30476;53.468;9.826;2023-05-07T06:40:26;7.80;;;6.87;;
44165;SDS011;30476;53.468;9.826;2023-05-07T06:42:52;8.07;;;7.27;;
44165;SDS011;30476;53.468;9.826;2023-05-07T06:45:19;8.23;;;7.43;;
44165;SDS011;30476;53.468;9.826;2023-05-07T06:47:45;8.27;;;7.30;;
44165;SDS011;30476;53.468;9.826;2023-05-07T06:50:10;9.40;;;7.60;;
44165;SDS011;30476;53.468;9.826;2023-05-07T06:52:36;8.80;;;8.00;;
44165;SDS011;30476;53.468;9.826;2023-05-07T06:55:01;7.53;;;6.90;;
44165;SDS011;30476;53.468;9.826;2023-05-07T06:57:27;7.93;;;7.20;;
44165;SDS011;30476;53.468;9.826;2023-05-07T06:59:53;8.27;;;7.30;;
44165;SDS011;30476;53.468;9.826;2023-05-07T07:02:19;9.23;;;7.20;;
44165;SDS011;30476;53.468;9.826;2023-05-07T07:04:45;8.63;;;7.83;;
44165;SDS011;30476;53.468;9.826;2023-05-07T07:07:10;8.50;;;7.73;;
44165;SDS011;30476;53.468;9.826;2023-05-07T07:09:36;8.30;;;7.50;;
44165;SDS011;30476;53.468;9.826;2023-05-07T07:12:02;7.73;;;7.03;;
44165;SDS011;30476;53.468;9.826;2023-05-07T07:14:28;7.93;;;6.70;;
44165;SDS011;30476;53.468;9.826;2023-05-07T07:16:54;6.87;;;6.27;;
44165;SDS011;30476;53.468;9.826;2023-05-07T07:19:19;7.90;;;7.17;;
44165;SDS011;30476;53.468;9.826;2023-05-07T07:21:45;7.27;;;6.60;;
44165;SDS011;30476;53.468;9.826;2023-05-07T07:24:12;7.60;;;6.80;;
44165;SDS011;30476;53.468;9.826;2023-05-07T07:26:38;7.23;;;6.17;;
44165;SDS011;30476;53.468;9.826;2023-05-07T07:29:05;10.60;;;7.47;;
44165;SDS011;30476;53.468;9.826;2023-05-07T07:31:32;7.17;;;6.57;;
44165;SDS011;30476;53.468;9.826;2023-05-07T07:33:57;6.67;;;6.07;;
44165;SDS011;30476;53.468;9.826;2023-05-07T07:36:23;6.80;;;6.20;;
44165;SDS011;30476;53.468;9.826;2023-05-07T07:38:49;6.63;;;6.03;;
44165;SDS011;30476;53.468;9.826;2023-05-07T07:41:14;9.37;;;7.20;;
44165;SDS011;30476;53.468;9.826;2023-05-07T07:43:40;7.00;;;6.40;;
44165;SDS011;30476;53.468;9.826;2023-05-07T07:46:06;6.70;;;6.00;;
44165;SDS011;30476;53.468;9.826;2023-05-07T07:48:32;7.80;;;7.13;;
44165;SDS011;30476;53.468;9.826;2023-05-07T07:50:58;6.10;;;5.60;;
44165;SDS011;30476;53.468;9.826;2023-05-07T07:53:24;7.53;;;6.83;;
44165;SDS011;30476;53.468;9.826;2023-05-07T07:55:50;8.10;;;7.30;;
44165;SDS011;30476;53.468;9.826;2023-05-07T07:58:16;8.20;;;6.93;;
44165;SDS011;30476;53.468;9.826;2023-05-07T08:00:42;6.47;;;5.97;;
44165;SDS011;30476;53.468;9.826;2023-05-07T08:03:10;7.07;;;6.43;;
44165;SDS011;30476;53.468;9.826;2023-05-07T08:05:36;6.10;;;5.60;;
44165;SDS011;30476;53.468;9.826;2023-05-07T08:08:03;7.00;;;6.40;;
44165;SDS011;30476;53.468;9.826;2023-05-07T08:10:29;7.43;;;6.73;;
44165;SDS011;30476;53.468;9.826;2023-05-07T08:12:59;7.87;;;7.00;;
44165;SDS011;30476;53.468;9.826;2023-05-07T08:15:24;6.60;;;6.00;;
44165;SDS011;30476;53.468;9.826;2023-05-07T08:17:50;6.60;;;5.97;;
44165;SDS011;30476;53.468;9.826;2023-05-07T08:20:16;6.70;;;6.10;;
44165;SDS011;30476;53.468;9.826;2023-05-07T08:22:41;7.80;;;7.10;;
44165;SDS011;30476;53.468;9.826;2023-05-07T08:25:07;8.50;;;7.77;;
44165;SDS011;30476;53.468;9.826;2023-05-07T08:27:34;6.53;;;5.93;;
44165;SDS011;30476;53.468;9.826;2023-05-07T08:29:59;7.00;;;6.40;;
44165;SDS011;30476;53.468;9.826;2023-05-07T08:32:25;6.43;;;5.83;;
44165;SDS011;30476;53.468;9.826;2023-05-07T08:34:51;6.77;;;6.17;;
44165;SDS011;30476;53.468;9.826;2023-05-07T08:37:17;6.13;;;5.73;;
44165;SDS011;30476;53.468;9.826;2023-05-07T08:39:42;6.80;;;6.20;;
44165;SDS011;30476;53.468;9.826;2023-05-07T08:42:08;7.90;;;6.10;;
44165;SDS011;30476;53.468;9.826;2023-05-07T08:44:34;5.73;;;5.23;;
44165;SDS011;30476;53.468;9.826;2023-05-07T08:47:01;7.50;;;6.80;;
44165;SDS011;30476;53.468;9.826;2023-05-07T08:49:27;7.07;;;5.77;;
44165;SDS011;30476;53.468;9.826;2023-05-07T08:51:53;6.30;;;5.90;;
44165;SDS011;30476;53.468;9.826;2023-05-07T08:54:21;6.57;;;5.97;;
44165;SDS011;30476;53.468;9.826;2023-05-07T08:56:47;6.20;;;5.70;;
44165;SDS011;30476;53.468;9.826;2023-05-07T08:59:13;5.73;;;5.40;;
44165;SDS011;30476;53.468;9.826;2023-05-07T09:01:39;6.70;;;6.10;;
44165;SDS011;30476;53.468;9.826;2023-05-07T09:04:05;5.93;;;5.43;;
44165;SDS011;30476;53.468;9.826;2023-05-07T09:06:32;6.70;;;6.10;;
44165;SDS011;30476;53.468;9.826;2023-05-07T09:08:58;5.90;;;5.30;;
44165;SDS011;30476;53.468;9.826;2023-05-07T09:11:26;6.17;;;5.57;;
44165;SDS011;30476;53.468;9.826;2023-05-07T09:13:53;6.23;;;5.67;;
44165;SDS011;30476;53.468;9.826;2023-05-07T09:16:21;6.03;;;5.53;;
44165;SDS011;30476;53.468;9.826;2023-05-07T09:18:48;6.10;;;5.60;;
44165;SDS011;30476;53.468;9.826;2023-05-07T09:21:17;6.37;;;5.87;;
44165;SDS011;30476;53.468;9.826;2023-05-07T09:23:43;5.07;;;4.67;;
44165;SDS011;30476;53.468;9.826;2023-05-07T09:26:09;6.83;;;5.70;;
44165;SDS011;30476;53.468;9.826;2023-05-07T09:28:40;5.27;;;4.77;;
44165;SDS011;30476;53.468;9.826;2023-05-07T09:31:10;5.00;;;4.60;;
44165;SDS011;30476;53.468;9.826;2023-05-07T09:33:37;5.37;;;4.97;;
44165;SDS011;30476;53.468;9.826;2023-05-07T09:36:04;5.77;;;5.43;;
44165;SDS011;30476;53.468;9.826;2023-05-07T09:38:31;5.87;;;5.37;;
44165;SDS011;30476;53.468;9.826;2023-05-07T09:41:05;5.57;;;5.27;;
44165;SDS011;30476;53.468;9.826;2023-05-07T09:43:35;5.33;;;4.87;;
44165;SDS011;30476;53.468;9.826;2023-05-07T09:46:03;5.90;;;5.40;;
44165;SDS011;30476;53.468;9.826;2023-05-07T09:48:31;5.53;;;5.13;;
44165;SDS011;30476;53.468;9.826;2023-05-07T09:51:01;6.03;;;5.63;;
44165;SDS011;30476;53.468;9.826;2023-05-07T09:53:29;7.27;;;6.70;;
44165;SDS011;30476;53.468;9.826;2023-05-07T09:55:56;6.70;;;6.20;;
44165;SDS011;30476;53.468;9.826;2023-05-07T09:58:22;5.93;;;5.53;;
44165;SDS011;30476;53.468;9.826;2023-05-07T10:00:50;7.83;;;6.97;;
44165;SDS011;30476;53.468;9.826;2023-05-07T10:03:17;6.10;;;5.70;;
44165;SDS011;30476;53.468;9.826;2023-05-07T10:05:46;5.97;;;5.40;;
44165;SDS011;30476;53.468;9.826;2023-05-07T10:08:12;6.20;;;5.70;;
44165;SDS011;30476;53.468;9.826;2023-05-07T10:10:42;5.67;;;5.17;;
44165;SDS011;30476;53.468;9.826;2023-05-07T10:13:08;6.00;;;5.50;;
44165;SDS011;30476;53.468;9.826;2023-05-07T10:15:36;6.57;;;6.07;;
44165;SDS011;30476;53.468;9.826;2023-05-07T10:18:03;5.70;;;5.30;;
44165;SDS011;30476;53.468;9.826;2023-05-07T10:20:31;7.63;;;6.43;;
44165;SDS011;30476;53.468;9.826;2023-05-07T10:22:58;5.97;;;5.50;;
44165;SDS011;30476;53.468;9.826;2023-05-07T10:25:30;6.67;;;6.07;;
44165;SDS011;30476;53.468;9.826;2023-05-07T10:27:59;6.60;;;6.00;;
44165;SDS011;30476;53.468;9.826;2023-05-07T10:33:19;6.60;;;6.10;;
44165;SDS011;30476;53.468;9.826;2023-05-07T10:35:51;6.77;;;6.17;;
44165;SDS011;30476;53.468;9.826;2023-05-07T10:38:24;5.87;;;5.40;;
44165;SDS011;30476;53.468;9.826;2023-05-07T10:40:51;6.40;;;6.00;;
44165;SDS011;30476;53.468;9.826;2023-05-07T10:43:18;6.63;;;6.13;;
44165;SDS011;30476;53.468;9.826;2023-05-07T10:45:44;6.13;;;5.63;;
44165;SDS011;30476;53.468;9.826;2023-05-07T10:51:33;7.80;;;7.20;;
44165;SDS011;30476;53.468;9.826;2023-05-07T10:56:35;6.93;;;6.43;;
44165;SDS011;30476;53.468;9.826;2023-05-07T11:01:56;6.97;;;6.47;;
44165;SDS011;30476;53.468;9.826;2023-05-07T11:04:24;7.17;;;6.63;;
44165;SDS011;30476;53.468;9.826;2023-05-07T11:12:17;6.67;;;6.03;;
44165;SDS011;30476;53.468;9.826;2023-05-07T11:15:04;7.03;;;6.43;;
44165;SDS011;30476;53.468;9.826;2023-05-07T11:17:34;6.93;;;6.10;;
44165;SDS011;30476;53.468;9.826;2023-05-07T11:20:01;7.57;;;6.87;;
44165;SDS011;30476;53.468;9.826;2023-05-07T11:25:05;8.60;;;7.90;;
44165;SDS011;30476;53.468;9.826;2023-05-07T11:27:32;6.80;;;6.30;;
44165;SDS011;30476;53.468;9.826;2023-05-07T11:29:58;7.63;;;7.10;;
44165;SDS011;30476;53.468;9.826;2023-05-07T11:32:25;7.77;;;7.07;;
44165;SDS011;30476;53.468;9.826;2023-05-07T11:34:54;7.00;;;6.40;;
44165;SDS011;30476;53.468;9.826;2023-05-07T11:37:21;7.00;;;6.40;;
44165;SDS011;30476;53.468;9.826;2023-05-07T11:39:48;6.87;;;6.37;;
44165;SDS011;30476;53.468;9.826;2023-05-07T11:42:35;6.90;;;6.40;;
44165;SDS011;30476;53.468;9.826;2023-05-07T11:45:03;7.33;;;6.63;;
44165;SDS011;30476;53.468;9.826;2023-05-07T11:47:31;6.80;;;6.17;;
44165;SDS011;30476;53.468;9.826;2023-05-07T11:50:02;6.93;;;6.43;;
44165;SDS011;30476;53.468;9.826;2023-05-07T11:52:30;6.30;;;5.63;;
44165;SDS011;30476;53.468;9.826;2023-05-07T11:54:56;5.77;;;5.27;;
44165;SDS011;30476;53.468;9.826;2023-05-07T11:57:24;5.23;;;4.93;;
44165;SDS011;30476;53.468;9.826;2023-05-07T11:59:53;6.03;;;5.53;;
44165;SDS011;30476;53.468;9.826;2023-05-07T12:02:19;5.40;;;5.10;;
44165;SDS011;30476;53.468;9.826;2023-05-07T12:04:45;4.90;;;4.33;;
44165;SDS011;30476;53.468;9.826;2023-05-07T12:07:11;5.70;;;5.30;;
44165;SDS011;30476;53.468;9.826;2023-05-07T12:09:38;6.33;;;5.93;;
44165;SDS011;30476;53.468;9.826;2023-05-07T12:12:05;6.30;;;5.80;;
44165;SDS011;30476;53.468;9.826;2023-05-07T12:14:31;5.63;;;5.23;;
44165;SDS011;30476;53.468;9.826;2023-05-07T12:16:58;4.90;;;4.60;;
44165;SDS011;30476;53.468;9.826;2023-05-07T12:19:28;5.80;;;5.40;;
44165;SDS011;30476;53.468;9.826;2023-05-07T12:21:55;5.53;;;5.23;;
44165;SDS011;30476;53.468;9.826;2023-05-07T12:24:21;5.20;;;4.90;;
44165;SDS011;30476;53.468;9.826;2023-05-07T12:26:47;5.33;;;4.93;;
44165;SDS011;30476;53.468;9.826;2023-05-07T12:29:14;4.90;;;4.60;;
44165;SDS011;30476;53.468;9.826;2023-05-07T12:31:40;4.37;;;4.07;;
44165;SDS011;30476;53.468;9.826;2023-05-07T12:34:07;4.77;;;4.50;;
44165;SDS011;30476;53.468;9.826;2023-05-07T12:36:39;7.33;;;4.57;;
44165;SDS011;30476;53.468;9.826;2023-05-07T12:39:08;5.07;;;4.77;;
44165;SDS011;30476;53.468;9.826;2023-05-07T12:41:56;4.47;;;4.23;;
44165;SDS011;30476;53.468;9.826;2023-05-07T12:44:22;4.70;;;4.40;;
44165;SDS011;30476;53.468;9.826;2023-05-07T12:46:49;4.30;;;4.00;;
44165;SDS011;30476;53.468;9.826;2023-05-07T12:49:15;4.33;;;4.07;;
44165;SDS011;30476;53.468;9.826;2023-05-07T12:51:41;4.40;;;4.00;;
44165;SDS011;30476;53.468;9.826;2023-05-07T12:54:06;4.23;;;3.93;;
44165;SDS011;30476;53.468;9.826;2023-05-07T12:56:35;4.30;;;3.90;;
44165;SDS011;30476;53.468;9.826;2023-05-07T12:59:01;4.23;;;4.03;;
44165;SDS011;30476;53.468;9.826;2023-05-07T13:01:30;4.30;;;4.10;;
44165;SDS011;30476;53.468;9.826;2023-05-07T13:03:58;3.67;;;3.47;;
44165;SDS011;30476;53.468;9.826;2023-05-07T13:06:26;4.40;;;4.20;;
44165;SDS011;30476;53.468;9.826;2023-05-07T13:08:52;3.67;;;3.47;;
44165;SDS011;30476;53.468;9.826;2023-05-07T13:11:18;3.87;;;3.67;;
44165;SDS011;30476;53.468;9.826;2023-05-07T13:13:44;3.93;;;3.53;;
44165;SDS011;30476;53.468;9.826;2023-05-07T13:16:10;4.00;;;3.73;;
44165;SDS011;30476;53.468;9.826;2023-05-07T13:18:37;4.00;;;3.70;;
44165;SDS011;30476;53.468;9.826;2023-05-07T13:21:04;3.37;;;3.17;;
44165;SDS011;30476;53.468;9.826;2023-05-07T13:23:29;3.63;;;3.33;;
44165;SDS011;30476;53.468;9.826;2023-05-07T13:25:55;3.93;;;3.70;;
44165;SDS011;30476;53.468;9.826;2023-05-07T13:28:22;3.47;;;3.27;;
44165;SDS011;30476;53.468;9.826;2023-05-07T13:30:49;3.57;;;3.37;;
44165;SDS011;30476;53.468;9.826;2023-05-07T13:33:17;3.10;;;2.90;;
44165;SDS011;30476;53.468;9.826;2023-05-07T13:35:43;3.40;;;3.20;;
44165;SDS011;30476;53.468;9.826;2023-05-07T13:38:09;3.63;;;3.43;;
44165;SDS011;30476;53.468;9.826;2023-05-07T13:40:35;3.70;;;3.50;;
44165;SDS011;30476;53.468;9.826;2023-05-07T13:43:01;3.70;;;3.40;;
44165;SDS011;30476;53.468;9.826;2023-05-07T13:45:28;3.00;;;2.90;;
44165;SDS011;30476;53.468;9.826;2023-05-07T13:47:55;4.10;;;3.90;;
44165;SDS011;30476;53.468;9.826;2023-05-07T13:50:21;4.03;;;3.47;;
44165;SDS011;30476;53.468;9.826;2023-05-07T13:52:47;3.47;;;3.23;;
44165;SDS011;30476;53.468;9.826;2023-05-07T13:55:19;3.60;;;3.40;;
44165;SDS011;30476;53.468;9.826;2023-05-07T13:57:46;3.43;;;3.30;;
44165;SDS011;30476;53.468;9.826;2023-05-07T14:00:13;3.10;;;3.00;;
44165;SDS011;30476;53.468;9.826;2023-05-07T14:02:39;3.37;;;3.07;;
44165;SDS011;30476;53.468;9.826;2023-05-07T14:05:06;3.00;;;2.80;;
44165;SDS011;30476;53.468;9.826;2023-05-07T14:07:32;3.30;;;3.10;;
44165;SDS011;30476;53.468;9.826;2023-05-07T14:09:58;4.17;;;2.60;;
44165;SDS011;30476;53.468;9.826;2023-05-07T14:12:23;2.93;;;2.73;;
44165;SDS011;30476;53.468;9.826;2023-05-07T14:14:50;2.80;;;2.60;;
44165;SDS011;30476;53.468;9.826;2023-05-07T14:17:16;3.30;;;3.10;;
44165;SDS011;30476;53.468;9.826;2023-05-07T14:19:42;3.00;;;2.80;;
44165;SDS011;30476;53.468;9.826;2023-05-07T14:22:08;2.70;;;2.60;;
44165;SDS011;30476;53.468;9.826;2023-05-07T14:24:34;3.00;;;2.80;;
44165;SDS011;30476;53.468;9.826;2023-05-07T14:27:00;2.60;;;2.43;;
44165;SDS011;30476;53.468;9.826;2023-05-07T14:29:26;2.47;;;2.27;;
44165;SDS011;30476;53.468;9.826;2023-05-07T14:31:52;3.40;;;2.87;;
44165;SDS011;30476;53.468;9.826;2023-05-07T14:34:18;2.87;;;2.60;;
44165;SDS011;30476;53.468;9.826;2023-05-07T14:36:44;3.03;;;2.83;;
44165;SDS011;30476;53.468;9.826;2023-05-07T14:39:09;4.13;;;2.30;;
44165;SDS011;30476;53.468;9.826;2023-05-07T14:41:35;2.60;;;2.50;;
44165;SDS011;30476;53.468;9.826;2023-05-07T14:44:01;2.93;;;2.83;;
44165;SDS011;30476;53.468;9.826;2023-05-07T14:46:29;2.13;;;2.03;;
44165;SDS011;30476;53.468;9.826;2023-05-07T14:48:56;2.23;;;2.13;;
44165;SDS011;30476;53.468;9.826;2023-05-07T14:51:22;2.50;;;2.40;;
44165;SDS011;30476;53.468;9.826;2023-05-07T14:53:49;1.97;;;1.87;;
44165;SDS011;30476;53.468;9.826;2023-05-07T14:56:15;1.87;;;1.77;;
44165;SDS011;30476;53.468;9.826;2023-05-07T14:58:42;2.07;;;1.97;;
44165;SDS011;30476;53.468;9.826;2023-05-07T15:01:08;1.90;;;1.80;;
44165;SDS011;30476;53.468;9.826;2023-05-07T15:03:34;2.30;;;2.20;;